Souryoumaru — JD2876 — position and weather

sailwx.info

Track history (hours):
 
Tides and Currents Weather Stations Pressure Air Temp Water Temp Dewpoint Dewpoint Depression Visibility Wind Speed Wind Dir Waves Ship Positions

Souryoumaru

Last reported at 2018-Jan-21 11:30 UTC. Time now 2018-Jan-21 20:31 UTC.
Position N 33°53' E 135°02'.

Length 65 m; draft 4.2 m.

Type: Ship (hazmat cat C). MMSI: 431000864.

Date/timePositionNaut miles runAvg speedWind from/ knotsBaromVisibWave heightAir tempDewpointWater temp
2018-Jan-21 11:30N 33°53' E 135°02'612.3
2018-Jan-21 11:00N 33°57' E 134°56'812.3
2018-Jan-21 10:22N 34°03' E 134°50'512.4
2018-Jan-21 10:00N 34°07' E 134°47'812.6
2018-Jan-21 09:21N 34°13' E 134°40'512.3
2018-Jan-21 08:56N 34°16' E 134°36'512.3
2018-Jan-21 08:30N 34°18' E 134°30'612.7
2018-Jan-21 08:00N 34°21' E 134°23'12 1.2
2018-Jan-20 21:19N 34°26' E 134°09'411.8
2018-Jan-20 20:58N 34°24' E 134°14'511.6
2018-Jan-20 20:30N 34°23' E 134°20'612.1
2018-Jan-20 20:00N 34°20' E 134°26'612.2
2018-Jan-20 19:30N 34°17' E 134°33'611.4
2018-Jan-20 19:00N 34°14' E 134°39'510.6
2018-Jan-20 18:30N 34°09' E 134°40'3 4.8
2018-Jan-20 17:53N 34°08' E 134°43'1 4.0
2018-Jan-20 17:30N 34°07' E 134°45'611.9
2018-Jan-20 17:00N 34°03' E 134°50'612.0
2018-Jan-20 16:30N 33°59' E 134°55'612.0
2018-Jan-20 16:00N 33°54' E 134°60'611.7
2018-Jan-20 15:30N 33°50' E 135°04'84 9.8
2018-Jan-20 06:55N 34°06' E 136°44'2410.2
2018-Jan-20 04:36N 34°29' E 136°52'112.0
2018-Jan-20 04:29N 34°30' E 136°51'1311.9
2018-Jan-20 03:25N 34°42' E 136°45'512.9
2018-Jan-20 03:00N 34°47' E 136°44'612.6
2018-Jan-20 02:30N 34°53' E 136°42'5 9.6
2018-Jan-20 02:00N 34°57' E 136°38'0 0.1
2018-Jan-20 01:30N 34°57' E 136°38'0 0.0
2018-Jan-20 00:59N 34°57' E 136°38'0 0.0
2018-Jan-20 00:29N 34°57' E 136°38'0 0.0
2018-Jan-20 00:01N 34°57' E 136°38'0 0.0
2018-Jan-19 23:29N 34°57' E 136°38'0 0.5
2018-Jan-19 23:01N 34°57' E 136°38'2 3.1
2018-Jan-19 22:28N 34°57' E 136°40'0 0.0
2018-Jan-19 21:58N 34°57' E 136°40'0 0.0
2018-Jan-19 21:30N 34°57' E 136°40'0 0.0
2018-Jan-19 21:00N 34°57' E 136°40'0 0.0
2018-Jan-19 20:30N 34°57' E 136°40'0 0.0
2018-Jan-19 20:00N 34°57' E 136°40'0 0.0
2018-Jan-19 19:30N 34°57' E 136°40'0 0.0
2018-Jan-19 18:59N 34°57' E 136°40'0 0.0
2018-Jan-19 18:30N 34°57' E 136°40'0 0.0
2018-Jan-19 18:00N 34°57' E 136°40'0 0.0
2018-Jan-19 17:30N 34°57' E 136°40'0 0.1
2018-Jan-19 17:00N 34°57' E 136°40'0 0.0
2018-Jan-19 16:30N 34°57' E 136°40'0 0.0
2018-Jan-19 16:01N 34°57' E 136°40'0 0.0
2018-Jan-19 15:30N 34°57' E 136°40'0 0.0
2018-Jan-19 15:00N 34°57' E 136°40'0 0.0
2018-Jan-19 14:30N 34°57' E 136°40'0 0.0
2018-Jan-19 14:00N 34°57' E 136°40'0 0.0
2018-Jan-19 13:30N 34°57' E 136°40'0 0.1
2018-Jan-19 12:59N 34°57' E 136°41'0 0.0
2018-Jan-19 12:30N 34°57' E 136°41'0 0.0
2018-Jan-19 12:00N 34°57' E 136°41'0 0.0
2018-Jan-19 11:30N 34°57' E 136°41'0 0.0
2018-Jan-19 11:01N 34°57' E 136°41'0 0.0
2018-Jan-19 10:30N 34°57' E 136°41'0 0.1
2018-Jan-19 10:00N 34°57' E 136°40'5 9.2
2018-Jan-19 09:31N 34°53' E 136°43'611.4
2018-Jan-19 09:00N 34°48' E 136°46'611.1
2018-Jan-19 08:30N 34°43' E 136°49'611.3
2018-Jan-19 07:59N 34°39' E 136°54'911.9
2018-Jan-19 07:16N 34°33' E 137°02'512.1
2018-Jan-19 06:48N 34°34' E 137°09'411.9
2018-Jan-19 06:30N 34°34' E 137°13'2811.1
2018-Jan-19 03:57N 34°34' E 137°48'710.9
2018-Jan-19 03:20N 34°34' E 137°56'510.9
2018-Jan-19 02:54N 34°34' E 138°02'511.1
2018-Jan-19 02:27N 34°34' E 138°08'511.6
2018-Jan-19 02:00N 34°34' E 138°14'612.0
2018-Jan-19 01:30N 34°35' E 138°21'611.7
2018-Jan-19 00:58N 34°36' E 138°29'511.5
2018-Jan-19 00:30N 34°37' E 138°35'611.8
2018-Jan-18 23:59N 34°36' E 138°43'612.6
2018-Jan-18 23:29N 34°35' E 138°50'611.9
2018-Jan-18 23:00N 34°37' E 138°57'611.7
2018-Jan-18 22:30N 34°41' E 139°02'611.8
2018-Jan-18 21:58N 34°45' E 139°07'711.2
2018-Jan-18 21:21N 34°48' E 139°15'411.1
2018-Jan-18 20:58N 34°49' E 139°20'711.8
2018-Jan-18 20:23N 34°49' E 139°28'511.2
2018-Jan-18 19:57N 34°48' E 139°34'611.5
2018-Jan-18 19:27N 34°50' E 139°41'511.5
2018-Jan-18 19:00N 34°52' E 139°47'911.2
2018-Jan-18 18:10N 34°53' E 139°58'210.2
2018-Jan-18 17:55N 34°55' E 140°01'510.3
2018-Jan-18 17:28N 34°57' E 140°05'510.0
2018-Jan-18 17:00N 34°60' E 140°10'710.6
2018-Jan-18 16:18N 35°04' E 140°17'  
2018-Jan-12 14:54N 34°35' E 138°22'511.9
2018-Jan-12 14:30N 34°35' E 138°27'611.4
2018-Jan-12 13:58N 34°35' E 138°35'611.8
2018-Jan-12 13:28N 34°35' E 138°42'612.0
2018-Jan-12 13:00N 34°36' E 138°49'611.0
2018-Jan-12 12:29N 34°36' E 138°56'511.3
2018-Jan-12 12:00N 34°39' E 139°01'611.2
2018-Jan-12 11:30N 34°42' E 139°07'610.9
2018-Jan-12 11:00N 34°45' E 139°13'5 9.9
2018-Jan-12 10:29N 34°47' E 139°18'5 9.7
2018-Jan-12 10:00N 34°49' E 139°23'712.1
2018-Jan-12 09:27N 34°48' E 139°31'612.1
2018-Jan-12 08:59N 34°47' E 139°38'610.9
2018-Jan-12 08:25N 34°49' E 139°45'511.2
2018-Jan-12 08:00N 34°51' E 139°50'812.5
2018-Jan-12 07:24N 34°54' E 139°59'612.6
2018-Jan-12 06:53N 34°58' E 140°05'512.2
2018-Jan-12 06:29N 35°01' E 140°10'  
Track history (hours):
 
Tides and Currents Weather Stations Pressure Air Temp Water Temp Dewpoint Dewpoint Depression Visibility Wind Speed Wind Dir Waves Ship Positions

Souryoumaru

Last reported at 2018-Jan-21 11:30 UTC. Time now 2018-Jan-21 20:31 UTC.
Position N 33°53' E 135°02'.

Length 65 m; draft 4.2 m.

Type: Ship (hazmat cat C). MMSI: 431000864.

Date/timePositionNaut miles runAvg speedWind from/ knotsBaromVisibWave heightAir tempDewpointWater temp
2018-Jan-21 11:30N 33°53' E 135°02'612.3
2018-Jan-21 11:00N 33°57' E 134°56'812.3
2018-Jan-21 10:22N 34°03' E 134°50'512.4
2018-Jan-21 10:00N 34°07' E 134°47'812.6
2018-Jan-21 09:21N 34°13' E 134°40'512.3
2018-Jan-21 08:56N 34°16' E 134°36'512.3
2018-Jan-21 08:30N 34°18' E 134°30'612.7
2018-Jan-21 08:00N 34°21' E 134°23'12 1.2
2018-Jan-20 21:19N 34°26' E 134°09'411.8
2018-Jan-20 20:58N 34°24' E 134°14'511.6
2018-Jan-20 20:30N 34°23' E 134°20'612.1
2018-Jan-20 20:00N 34°20' E 134°26'612.2
2018-Jan-20 19:30N 34°17' E 134°33'611.4
2018-Jan-20 19:00N 34°14' E 134°39'510.6
2018-Jan-20 18:30N 34°09' E 134°40'3 4.8
2018-Jan-20 17:53N 34°08' E 134°43'1 4.0
2018-Jan-20 17:30N 34°07' E 134°45'611.9
2018-Jan-20 17:00N 34°03' E 134°50'612.0
2018-Jan-20 16:30N 33°59' E 134°55'612.0
2018-Jan-20 16:00N 33°54' E 134°60'611.7
2018-Jan-20 15:30N 33°50' E 135°04'84 9.8
2018-Jan-20 06:55N 34°06' E 136°44'2410.2
2018-Jan-20 04:36N 34°29' E 136°52'112.0
2018-Jan-20 04:29N 34°30' E 136°51'1311.9
2018-Jan-20 03:25N 34°42' E 136°45'512.9
2018-Jan-20 03:00N 34°47' E 136°44'612.6
2018-Jan-20 02:30N 34°53' E 136°42'5 9.6
2018-Jan-20 02:00N 34°57' E 136°38'0 0.1
2018-Jan-20 01:30N 34°57' E 136°38'0 0.0
2018-Jan-20 00:59N 34°57' E 136°38'0 0.0
2018-Jan-20 00:29N 34°57' E 136°38'0 0.0
2018-Jan-20 00:01N 34°57' E 136°38'0 0.0
2018-Jan-19 23:29N 34°57' E 136°38'0 0.5
2018-Jan-19 23:01N 34°57' E 136°38'2 3.1
2018-Jan-19 22:28N 34°57' E 136°40'0 0.0
2018-Jan-19 21:58N 34°57' E 136°40'0 0.0
2018-Jan-19 21:30N 34°57' E 136°40'0 0.0
2018-Jan-19 21:00N 34°57' E 136°40'0 0.0
2018-Jan-19 20:30N 34°57' E 136°40'0 0.0
2018-Jan-19 20:00N 34°57' E 136°40'0 0.0
2018-Jan-19 19:30N 34°57' E 136°40'0 0.0
2018-Jan-19 18:59N 34°57' E 136°40'0 0.0
2018-Jan-19 18:30N 34°57' E 136°40'0 0.0
2018-Jan-19 18:00N 34°57' E 136°40'0 0.0
2018-Jan-19 17:30N 34°57' E 136°40'0 0.1
2018-Jan-19 17:00N 34°57' E 136°40'0 0.0
2018-Jan-19 16:30N 34°57' E 136°40'0 0.0
2018-Jan-19 16:01N 34°57' E 136°40'0 0.0
2018-Jan-19 15:30N 34°57' E 136°40'0 0.0
2018-Jan-19 15:00N 34°57' E 136°40'0 0.0
2018-Jan-19 14:30N 34°57' E 136°40'0 0.0
2018-Jan-19 14:00N 34°57' E 136°40'0 0.0
2018-Jan-19 13:30N 34°57' E 136°40'0 0.1
2018-Jan-19 12:59N 34°57' E 136°41'0 0.0
2018-Jan-19 12:30N 34°57' E 136°41'0 0.0
2018-Jan-19 12:00N 34°57' E 136°41'0 0.0
2018-Jan-19 11:30N 34°57' E 136°41'0 0.0
2018-Jan-19 11:01N 34°57' E 136°41'0 0.0
2018-Jan-19 10:30N 34°57' E 136°41'0 0.1
2018-Jan-19 10:00N 34°57' E 136°40'5 9.2
2018-Jan-19 09:31N 34°53' E 136°43'611.4
2018-Jan-19 09:00N 34°48' E 136°46'611.1
2018-Jan-19 08:30N 34°43' E 136°49'611.3
2018-Jan-19 07:59N 34°39' E 136°54'911.9
2018-Jan-19 07:16N 34°33' E 137°02'512.1
2018-Jan-19 06:48N 34°34' E 137°09'411.9
2018-Jan-19 06:30N 34°34' E 137°13'2811.1
2018-Jan-19 03:57N 34°34' E 137°48'710.9
2018-Jan-19 03:20N 34°34' E 137°56'510.9
2018-Jan-19 02:54N 34°34' E 138°02'511.1
2018-Jan-19 02:27N 34°34' E 138°08'511.6
2018-Jan-19 02:00N 34°34' E 138°14'612.0
2018-Jan-19 01:30N 34°35' E 138°21'611.7
2018-Jan-19 00:58N 34°36' E 138°29'511.5
2018-Jan-19 00:30N 34°37' E 138°35'611.8
2018-Jan-18 23:59N 34°36' E 138°43'612.6
2018-Jan-18 23:29N 34°35' E 138°50'611.9
2018-Jan-18 23:00N 34°37' E 138°57'611.7
2018-Jan-18 22:30N 34°41' E 139°02'611.8
2018-Jan-18 21:58N 34°45' E 139°07'711.2
2018-Jan-18 21:21N 34°48' E 139°15'411.1
2018-Jan-18 20:58N 34°49' E 139°20'711.8
2018-Jan-18 20:23N 34°49' E 139°28'511.2
2018-Jan-18 19:57N 34°48' E 139°34'611.5
2018-Jan-18 19:27N 34°50' E 139°41'511.5
2018-Jan-18 19:00N 34°52' E 139°47'911.2
2018-Jan-18 18:10N 34°53' E 139°58'210.2
2018-Jan-18 17:55N 34°55' E 140°01'510.3
2018-Jan-18 17:28N 34°57' E 140°05'510.0
2018-Jan-18 17:00N 34°60' E 140°10'710.6
2018-Jan-18 16:18N 35°04' E 140°17'  
2018-Jan-12 14:54N 34°35' E 138°22'511.9
2018-Jan-12 14:30N 34°35' E 138°27'611.4
2018-Jan-12 13:58N 34°35' E 138°35'611.8
2018-Jan-12 13:28N 34°35' E 138°42'612.0
2018-Jan-12 13:00N 34°36' E 138°49'611.0
2018-Jan-12 12:29N 34°36' E 138°56'511.3
2018-Jan-12 12:00N 34°39' E 139°01'611.2
2018-Jan-12 11:30N 34°42' E 139°07'610.9
2018-Jan-12 11:00N 34°45' E 139°13'5 9.9
2018-Jan-12 10:29N 34°47' E 139°18'5 9.7
2018-Jan-12 10:00N 34°49' E 139°23'712.1
2018-Jan-12 09:27N 34°48' E 139°31'612.1
2018-Jan-12 08:59N 34°47' E 139°38'610.9
2018-Jan-12 08:25N 34°49' E 139°45'511.2
2018-Jan-12 08:00N 34°51' E 139°50'812.5
2018-Jan-12 07:24N 34°54' E 139°59'612.6
2018-Jan-12 06:53N 34°58' E 140°05'512.2
2018-Jan-12 06:29N 35°01' E 140°10'  

Dump ship's entire track history